createdAt,value
2023-03-21T00:01:52.686Z,98176.50
2023-03-21T00:04:21.575Z,98173.25
2023-03-21T00:06:51.417Z,98166.16
2023-03-21T00:09:20.364Z,98175.25
2023-03-21T00:11:49.235Z,98162.16
2023-03-21T00:14:19.014Z,98167.66
2023-03-21T00:16:50.825Z,98168.03
2023-03-21T00:19:20.962Z,98163.34
2023-03-21T00:22:06.645Z,98161.28
2023-03-21T00:24:38.926Z,98157.22
2023-03-21T00:27:43.063Z,98158.16
2023-03-21T00:29:56.087Z,98159.00
2023-03-21T00:32:24.375Z,98155.94
2023-03-21T00:37:41.528Z,98154.75
2023-03-21T00:40:24.975Z,98159.47
2023-03-21T00:42:54.841Z,98147.47
2023-03-21T00:45:26.657Z,98158.25
2023-03-21T00:47:55.122Z,98145.94
2023-03-21T00:50:23.913Z,98159.56
2023-03-21T00:52:52.396Z,98149.19
2023-03-21T00:55:23.529Z,98148.91
2023-03-21T00:58:01.149Z,98153.91
2023-03-21T01:00:30.848Z,98157.91
2023-03-21T01:03:17.429Z,98156.81
2023-03-21T01:06:05.488Z,98161.03
2023-03-21T01:08:50.613Z,98156.84
2023-03-21T01:11:23.932Z,98162.38
2023-03-21T01:13:59.680Z,98157.03
2023-03-21T01:16:33.579Z,98158.16
2023-03-21T01:19:05.010Z,98151.94
2023-03-21T01:21:36.260Z,98152.19
2023-03-21T01:24:04.838Z,98154.63
2023-03-21T01:26:34.921Z,98152.91
2023-03-21T01:29:03.158Z,98144.69
2023-03-21T01:31:31.926Z,98159.16
2023-03-21T01:34:00.353Z,98150.31
2023-03-21T01:36:29.318Z,98147.75
2023-03-21T01:38:57.552Z,98145.91
2023-03-21T01:41:36.650Z,98148.00
2023-03-21T01:44:13.955Z,98144.53
2023-03-21T01:46:51.794Z,98147.09
2023-03-21T01:49:26.228Z,98145.00
2023-03-21T01:52:01.073Z,98137.72
2023-03-21T01:54:34.503Z,98138.28
2023-03-21T01:57:05.586Z,98136.13
2023-03-21T01:59:38.211Z,98139.47
2023-03-21T02:02:10.079Z,98138.44
2023-03-21T02:04:39.252Z,98141.38
2023-03-21T02:07:16.868Z,98136.81
2023-03-21T02:09:48.429Z,98133.13
2023-03-21T02:12:18.802Z,98133.22
2023-03-21T02:14:49.795Z,98129.09
2023-03-21T02:17:23.533Z,98128.94
2023-03-21T02:20:27.282Z,98124.31
2023-03-21T02:23:30.524Z,98124.41
2023-03-21T02:26:39.525Z,98122.59
2023-03-21T02:29:19.680Z,98119.25
2023-03-21T02:31:55.739Z,98117.84
2023-03-21T02:35:00.795Z,98133.03
2023-03-21T02:37:38.332Z,98128.22
2023-03-21T02:40:12.715Z,98129.34
2023-03-21T02:42:59.426Z,98129.84
2023-03-21T02:45:32.808Z,98130.91
2023-03-21T02:48:04.824Z,98132.69
2023-03-21T02:50:37.516Z,98136.38
2023-03-21T02:53:09.918Z,98140.47
2023-03-21T02:55:39.279Z,98129.03
2023-03-21T02:58:13.232Z,98139.66
2023-03-21T03:00:44.888Z,98132.75
2023-03-21T03:03:24.869Z,98128.72
2023-03-21T03:06:02.342Z,98123.94
2023-03-21T03:08:43.186Z,98130.91
2023-03-21T03:11:26.210Z,98133.44
2023-03-21T03:14:25.143Z,98128.53
2023-03-21T03:17:05.272Z,98129.50
2023-03-21T03:19:44.690Z,98129.81
2023-03-21T03:22:22.581Z,98131.13
2023-03-21T03:24:56.716Z,98124.13
2023-03-21T03:27:27.370Z,98128.16
2023-03-21T03:29:56.485Z,98128.09
2023-03-21T03:32:30.540Z,98129.09
2023-03-21T03:34:59.680Z,98125.00
2023-03-21T03:37:31.097Z,98129.25
2023-03-21T03:40:06.129Z,98124.66
2023-03-21T03:42:37.715Z,98118.84
2023-03-21T03:45:06.646Z,98119.34
2023-03-21T03:47:47.746Z,98121.94
2023-03-21T03:50:28.287Z,98118.88
2023-03-21T03:53:01.260Z,98123.03
2023-03-21T03:55:34.787Z,98118.78
2023-03-21T03:58:06.447Z,98124.84
2023-03-21T04:00:39.407Z,98117.63
2023-03-21T04:03:09.996Z,98130.25
2023-03-21T04:05:38.517Z,98122.34
2023-03-21T04:08:07.795Z,98120.34
2023-03-21T04:10:37.872Z,98124.28
2023-03-21T04:13:06.686Z,98121.31
2023-03-21T04:15:35.103Z,98120.25
2023-03-21T04:18:03.777Z,98122.03
2023-03-21T04:20:37.329Z,98127.19
2023-03-21T04:23:06.763Z,98125.88
2023-03-21T04:25:36.891Z,98124.19
2023-03-21T04:28:08.647Z,98129.03
2023-03-21T04:30:38.406Z,98133.50
2023-03-21T04:33:07.156Z,98121.69
2023-03-21T04:35:37.750Z,98128.94
2023-03-21T04:38:06.604Z,98126.50
2023-03-21T04:40:35.330Z,98121.88
2023-03-21T04:43:04.137Z,98119.31
2023-03-21T04:45:33.880Z,98126.19
2023-03-21T04:48:02.623Z,98115.28
2023-03-21T04:50:31.950Z,98115.78
2023-03-21T04:53:00.432Z,98121.53
2023-03-21T04:55:31.876Z,98118.03
2023-03-21T04:58:00.169Z,98118.22
2023-03-21T05:00:28.588Z,98120.13
2023-03-21T05:02:58.782Z,98124.91
2023-03-21T05:05:27.188Z,98117.56
2023-03-21T05:07:55.947Z,98121.00
2023-03-21T05:10:24.269Z,98121.16
2023-03-21T05:12:52.931Z,98123.56
2023-03-21T05:15:21.353Z,98117.56
2023-03-21T05:17:49.992Z,98117.00
2023-03-21T05:20:19.998Z,98127.59
2023-03-21T05:22:50.776Z,98122.19
2023-03-21T05:25:34.100Z,98125.56
2023-03-21T05:28:03.243Z,98124.31
2023-03-21T05:30:32.163Z,98130.31
2023-03-21T05:33:01.312Z,98138.25
2023-03-21T05:35:31.089Z,98142.72
2023-03-21T05:37:59.892Z,98144.53
2023-03-21T05:40:28.359Z,98143.22
2023-03-21T05:42:56.935Z,98138.00
2023-03-21T05:45:25.974Z,98138.75
2023-03-21T05:47:54.707Z,98144.56
2023-03-21T05:50:23.131Z,98137.16
2023-03-21T05:52:53.178Z,98136.28
2023-03-21T05:55:21.496Z,98139.94
2023-03-21T05:57:50.205Z,98135.16
2023-03-21T06:00:21.988Z,98146.91
2023-03-21T06:02:51.218Z,98137.66
2023-03-21T06:05:19.605Z,98132.50
2023-03-21T06:07:48.200Z,98136.69
2023-03-21T06:10:18.030Z,98130.38
2023-03-21T06:12:46.624Z,98141.25
2023-03-21T06:15:15.014Z,98135.16
2023-03-21T06:17:43.648Z,98134.22
2023-03-21T06:20:13.078Z,98135.16
2023-03-21T06:22:41.787Z,98138.81
2023-03-21T06:25:11.161Z,98148.84
2023-03-21T06:27:41.685Z,98142.97
2023-03-21T06:30:11.582Z,98151.84
2023-03-21T06:32:40.631Z,98153.63
2023-03-21T06:35:09.796Z,98151.19
2023-03-21T06:37:38.745Z,98150.34
2023-03-21T06:40:09.213Z,98149.75
2023-03-21T06:42:38.283Z,98153.19
2023-03-21T06:45:09.353Z,98155.38
2023-03-21T06:47:37.727Z,98149.50
2023-03-21T06:50:07.533Z,98153.97
2023-03-21T06:52:36.178Z,98151.44
2023-03-21T06:55:04.666Z,98162.53
2023-03-21T06:57:33.463Z,98165.56
2023-03-21T07:00:01.967Z,98170.25
2023-03-21T07:02:32.254Z,98175.63
2023-03-21T07:05:00.613Z,98171.78
2023-03-21T07:07:29.988Z,98178.16
2023-03-21T07:09:58.469Z,98169.13
2023-03-21T07:12:27.091Z,98170.22
2023-03-21T07:14:55.531Z,98177.41
2023-03-21T07:17:24.132Z,98175.75
2023-03-21T07:19:53.871Z,98180.56
2023-03-21T07:22:22.608Z,98185.13
2023-03-21T07:25:04.023Z,98186.63
2023-03-21T07:27:33.695Z,98186.56
2023-03-21T07:30:02.053Z,98184.84
2023-03-21T07:32:33.944Z,98188.91
2023-03-21T07:35:03.601Z,98186.69
2023-03-21T07:37:32.283Z,98191.59
2023-03-21T07:40:00.534Z,98184.94
2023-03-21T07:42:29.275Z,98183.81
2023-03-21T07:44:57.678Z,98186.16
2023-03-21T07:47:26.327Z,98189.59
2023-03-21T07:49:54.690Z,98193.06
2023-03-21T07:52:24.905Z,98195.88
2023-03-21T07:54:53.135Z,98198.19
2023-03-21T07:57:21.720Z,98192.88
2023-03-21T07:59:49.993Z,98196.97
2023-03-21T08:02:19.360Z,98199.72
2023-03-21T08:04:47.956Z,98197.81
2023-03-21T08:07:16.678Z,98202.78
2023-03-21T08:09:46.500Z,98200.91
2023-03-21T08:12:15.171Z,98197.44
2023-03-21T08:14:43.614Z,98199.56
2023-03-21T08:17:12.618Z,98204.78
2023-03-21T08:19:41.052Z,98206.66
2023-03-21T08:22:11.089Z,98209.94
2023-03-21T08:24:39.433Z,98207.53
2023-03-21T08:27:09.363Z,98209.38
2023-03-21T08:29:40.731Z,98204.44
2023-03-21T08:32:09.899Z,98199.59
2023-03-21T08:34:38.305Z,98203.25
2023-03-21T08:37:07.204Z,98197.09
2023-03-21T08:39:35.705Z,98202.78
2023-03-21T08:42:05.565Z,98197.00
2023-03-21T08:44:35.475Z,98205.22
2023-03-21T08:47:03.985Z,98209.56
2023-03-21T08:49:32.406Z,98210.84
2023-03-21T08:52:01.097Z,98211.94
2023-03-21T08:54:29.609Z,98212.84
2023-03-21T08:56:58.545Z,98222.63
2023-03-21T08:59:26.913Z,98217.94
2023-03-21T09:01:57.205Z,98218.09
2023-03-21T09:04:27.211Z,98211.31
2023-03-21T09:06:56.423Z,98222.66
2023-03-21T09:09:24.790Z,98222.56
2023-03-21T09:11:53.652Z,98215.06
2023-03-21T09:14:28.375Z,98217.38
2023-03-21T09:16:58.919Z,98228.75
2023-03-21T09:19:28.006Z,98221.69
2023-03-21T09:21:57.720Z,98219.59
2023-03-21T09:24:26.571Z,98231.91
2023-03-21T09:26:55.487Z,98237.94
2023-03-21T09:29:24.039Z,98234.03
2023-03-21T09:31:53.625Z,98239.41
2023-03-21T09:34:23.311Z,98243.34
2023-03-21T09:36:54.800Z,98242.13
2023-03-21T09:39:23.319Z,98239.53
2023-03-21T09:42:05.359Z,98247.41
2023-03-21T09:44:44.007Z,98253.56
2023-03-21T09:47:21.002Z,98249.09
2023-03-21T09:49:56.850Z,98245.19
2023-03-21T09:52:32.383Z,98244.28
2023-03-21T09:55:00.751Z,98252.72
2023-03-21T09:57:33.248Z,98243.66
2023-03-21T10:00:12.222Z,98248.69
2023-03-21T10:02:41.695Z,98246.94
2023-03-21T10:05:19.258Z,98237.97
2023-03-21T10:07:54.198Z,98240.97
2023-03-21T10:10:24.985Z,98244.69
2023-03-21T10:12:55.985Z,98238.00
2023-03-21T10:15:25.741Z,98235.19
2023-03-21T10:17:58.640Z,98245.72
2023-03-21T10:20:31.784Z,98239.78
2023-03-21T10:23:02.364Z,98244.13
2023-03-21T10:25:33.641Z,98239.22
2023-03-21T10:28:03.388Z,98243.03
2023-03-21T10:30:38.616Z,98241.28
2023-03-21T10:33:09.781Z,98243.25
2023-03-21T10:35:41.148Z,98242.72
2023-03-21T10:38:16.312Z,98246.09
2023-03-21T10:40:44.652Z,98243.38
2023-03-21T10:43:37.937Z,98243.81
2023-03-21T10:46:12.884Z,98240.31
2023-03-21T10:48:46.420Z,98229.53
2023-03-21T10:51:20.706Z,98236.72
2023-03-21T10:53:52.723Z,98236.34
2023-03-21T10:56:25.008Z,98229.50
2023-03-21T10:58:53.922Z,98234.75
2023-03-21T11:01:30.598Z,98233.13
2023-03-21T11:04:02.092Z,98235.94
2023-03-21T11:06:33.331Z,98235.50
2023-03-21T11:09:05.776Z,98229.00
2023-03-21T11:11:39.272Z,98227.06
2023-03-21T11:14:09.556Z,98232.88
2023-03-21T11:16:41.515Z,98231.38
2023-03-21T11:19:17.612Z,98220.25
2023-03-21T11:21:47.775Z,98229.50
2023-03-21T11:24:18.198Z,98226.69
2023-03-21T11:26:48.455Z,98233.16
2023-03-21T11:29:25.584Z,98222.66
2023-03-21T11:31:54.660Z,98229.88
2023-03-21T11:34:29.060Z,98223.59
2023-03-21T11:37:02.855Z,98223.59
2023-03-21T11:39:39.954Z,98218.22
2023-03-21T11:42:27.423Z,98219.44
2023-03-21T11:45:05.488Z,98219.69
2023-03-21T11:47:33.821Z,98219.84
2023-03-21T11:50:05.363Z,98213.84
2023-03-21T11:52:37.771Z,98212.91
2023-03-21T11:55:33.960Z,98215.41
2023-03-21T11:58:14.750Z,98219.88
2023-03-21T12:00:49.242Z,98217.78
2023-03-21T12:03:47.225Z,98215.81
2023-03-21T12:06:22.868Z,98211.28
2023-03-21T12:09:05.700Z,98212.84
2023-03-21T12:11:42.640Z,98202.28
2023-03-21T12:14:17.637Z,98202.88
2023-03-21T12:16:54.729Z,98206.06
2023-03-21T12:19:42.924Z,98203.84
2023-03-21T12:22:19.134Z,98200.22
2023-03-21T12:24:52.190Z,98205.84
2023-03-21T12:27:27.868Z,98201.78
2023-03-21T12:30:07.247Z,98196.63
2023-03-21T12:32:50.735Z,98201.84
2023-03-21T12:35:30.052Z,98194.13
2023-03-21T12:38:04.214Z,98198.84
2023-03-21T12:40:46.103Z,98198.19
2023-03-21T12:43:35.494Z,98192.25
2023-03-21T12:46:06.054Z,98194.78
2023-03-21T12:48:40.743Z,98181.75
2023-03-21T12:51:13.030Z,98186.19
2023-03-21T12:53:53.598Z,98186.63
2023-03-21T12:56:26.011Z,98177.38
2023-03-21T12:58:59.728Z,98176.63
2023-03-21T13:01:30.270Z,98168.53
2023-03-21T13:04:16.155Z,98168.72
2023-03-21T13:06:45.182Z,98173.22
2023-03-21T13:09:28.546Z,98158.16
2023-03-21T13:12:09.891Z,98162.22
2023-03-21T13:14:44.935Z,98161.53
2023-03-21T13:17:20.810Z,98158.81
2023-03-21T13:19:52.596Z,98162.41
2023-03-21T13:22:25.624Z,98156.00
2023-03-21T13:24:59.546Z,98158.81
2023-03-21T13:27:31.769Z,98166.75
2023-03-21T13:30:02.742Z,98158.97
2023-03-21T13:32:32.348Z,98162.09
2023-03-21T13:35:04.600Z,98150.13
2023-03-21T13:37:36.945Z,98163.44
2023-03-21T13:40:12.340Z,98158.56
2023-03-21T13:42:47.184Z,98158.16
2023-03-21T13:45:26.222Z,98162.69
2023-03-21T13:47:55.903Z,98167.75
2023-03-21T13:50:52.157Z,98159.09
2023-03-21T13:53:34.471Z,98154.19
2023-03-21T13:56:25.009Z,98158.81
2023-03-21T13:59:04.927Z,98148.75
2023-03-21T14:01:42.011Z,98142.72
2023-03-21T14:04:15.773Z,98148.66
2023-03-21T14:06:49.265Z,98148.66
2023-03-21T14:09:23.484Z,98143.03
2023-03-21T14:11:56.587Z,98139.38
2023-03-21T14:14:34.607Z,98149.50
2023-03-21T14:17:03.760Z,98140.31
2023-03-21T14:19:33.533Z,98137.25
2023-03-21T14:22:04.178Z,98140.22
2023-03-21T14:24:34.274Z,98132.44
2023-03-21T14:27:04.748Z,98137.47
2023-03-21T14:29:36.071Z,98134.47
2023-03-21T14:32:06.156Z,98129.19
2023-03-21T14:34:36.882Z,98130.78
2023-03-21T14:37:09.009Z,98137.25
2023-03-21T14:39:37.384Z,98142.22
2023-03-21T14:42:08.205Z,98133.22
2023-03-21T14:44:56.222Z,98141.72
2023-03-21T14:47:28.017Z,98142.53
2023-03-21T14:49:58.097Z,98131.69
2023-03-21T14:52:29.452Z,98139.59
2023-03-21T14:54:58.551Z,98135.16
2023-03-21T14:57:29.184Z,98133.22
2023-03-21T15:00:04.832Z,98133.72
2023-03-21T15:02:36.968Z,98132.84
2023-03-21T15:05:12.197Z,98140.19
2023-03-21T15:07:41.452Z,98131.69
2023-03-21T15:10:18.084Z,98133.63
2023-03-21T15:12:55.139Z,98129.63
2023-03-21T15:15:27.869Z,98134.88
2023-03-21T15:17:59.853Z,98133.16
2023-03-21T15:20:28.465Z,98133.66
2023-03-21T15:22:59.493Z,98135.53
2023-03-21T15:25:29.873Z,98128.13
2023-03-21T15:27:58.937Z,98125.00
2023-03-21T15:30:30.695Z,98115.97
2023-03-21T15:33:01.021Z,98114.44
2023-03-21T15:35:39.842Z,98116.09
2023-03-21T15:38:21.673Z,98121.06
2023-03-21T15:40:50.048Z,98109.06
2023-03-21T15:43:20.912Z,98118.75
2023-03-21T15:45:55.181Z,98117.97
2023-03-21T15:48:27.573Z,98107.19
2023-03-21T15:50:59.945Z,98109.63
2023-03-21T15:53:28.874Z,98107.38
2023-03-21T15:56:02.099Z,98106.88
2023-03-21T15:58:36.228Z,98106.56
2023-03-21T16:01:08.600Z,98115.47
2023-03-21T16:03:40.674Z,98104.38
2023-03-21T16:06:18.756Z,98103.22
2023-03-21T16:08:48.655Z,98104.31
2023-03-21T16:11:25.726Z,98100.16
2023-03-21T16:13:56.013Z,98106.69
2023-03-21T16:16:28.562Z,98110.50
2023-03-21T16:18:59.045Z,98103.78
2023-03-21T16:21:29.751Z,98113.81
2023-03-21T16:23:59.226Z,98107.19
2023-03-21T16:26:29.821Z,98106.19
2023-03-21T16:28:58.855Z,98112.03
2023-03-21T16:31:30.423Z,98117.06
2023-03-21T16:33:59.252Z,98119.03
2023-03-21T16:36:30.577Z,98117.53
2023-03-21T16:38:59.864Z,98119.66
2023-03-21T16:41:29.033Z,98124.03
2023-03-21T16:43:57.974Z,98120.66
2023-03-21T16:46:28.984Z,98130.22
2023-03-21T16:48:57.950Z,98126.78
2023-03-21T16:51:30.541Z,98130.81
2023-03-21T16:53:59.495Z,98122.31
2023-03-21T16:56:38.661Z,98129.78
2023-03-21T16:59:08.087Z,98124.56
2023-03-21T17:01:40.292Z,98129.03
2023-03-21T17:04:09.252Z,98122.13
2023-03-21T17:06:44.735Z,98122.91
2023-03-21T17:09:15.153Z,98132.69
2023-03-21T17:11:45.702Z,98135.09
2023-03-21T17:14:16.973Z,98131.06
2023-03-21T17:16:47.633Z,98145.53
2023-03-21T17:19:18.539Z,98140.97
2023-03-21T17:21:47.261Z,98134.44
2023-03-21T17:24:16.983Z,98136.34
2023-03-21T17:26:46.076Z,98140.81
2023-03-21T17:29:16.022Z,98138.97
2023-03-21T17:31:47.473Z,98149.47
2023-03-21T17:34:17.801Z,98150.09
2023-03-21T17:36:48.943Z,98158.03
2023-03-21T17:39:21.337Z,98155.50
2023-03-21T17:41:49.918Z,98153.72
2023-03-21T17:44:18.661Z,98159.16
2023-03-21T17:46:50.219Z,98158.28
2023-03-21T17:49:21.435Z,98160.34
2023-03-21T17:51:50.684Z,98156.06
2023-03-21T17:54:19.591Z,98149.59
2023-03-21T17:56:48.580Z,98158.13
2023-03-21T17:59:17.545Z,98157.59
2023-03-21T18:01:47.633Z,98151.00
2023-03-21T18:04:16.563Z,98156.59
2023-03-21T18:06:47.129Z,98150.56
2023-03-21T18:09:19.915Z,98157.06
2023-03-21T18:11:50.027Z,98156.88
2023-03-21T18:14:24.879Z,98163.00
2023-03-21T18:16:56.410Z,98161.34
2023-03-21T18:19:25.404Z,98155.63
2023-03-21T18:21:55.474Z,98153.72
2023-03-21T18:24:24.404Z,98147.34
2023-03-21T18:26:53.115Z,98160.81
2023-03-21T18:32:10.650Z,98142.78
2023-03-21T18:34:40.621Z,98150.63
2023-03-21T18:37:13.271Z,98160.19
2023-03-21T18:39:44.648Z,98154.09
2023-03-21T18:42:18.278Z,98154.75
2023-03-21T18:44:50.182Z,98161.56
2023-03-21T18:47:19.033Z,98155.38
2023-03-21T18:50:12.736Z,98161.84
2023-03-21T18:52:38.068Z,98154.81
2023-03-21T18:55:07.965Z,98152.31
2023-03-21T18:57:38.478Z,98155.19
2023-03-21T19:00:13.581Z,98160.75
2023-03-21T19:02:47.107Z,98150.84
2023-03-21T19:05:17.966Z,98158.56
2023-03-21T19:07:49.027Z,98163.63
2023-03-21T19:10:20.859Z,98159.00
2023-03-21T19:12:50.092Z,98171.28
2023-03-21T19:15:21.399Z,98163.47
2023-03-21T19:20:44.381Z,98176.00
2023-03-21T19:23:14.643Z,98179.97
2023-03-21T19:25:44.294Z,98181.38
2023-03-21T19:28:13.016Z,98179.47
2023-03-21T19:30:49.853Z,98171.00
2023-03-21T19:33:20.192Z,98184.31
2023-03-21T19:35:50.530Z,98171.94
2023-03-21T19:38:25.490Z,98177.19
2023-03-21T19:40:56.228Z,98176.34
2023-03-21T19:43:32.760Z,98170.97
2023-03-21T19:46:03.223Z,98166.75
2023-03-21T19:48:32.718Z,98178.78
2023-03-21T19:53:52.607Z,98170.72
2023-03-21T19:56:24.565Z,98169.06
2023-03-21T19:58:55.485Z,98177.38
2023-03-21T20:01:25.690Z,98172.47
2023-03-21T20:03:54.135Z,98170.75
2023-03-21T20:06:24.116Z,98174.34
2023-03-21T20:11:43.870Z,98183.22
2023-03-21T20:14:12.428Z,98170.22
2023-03-21T20:16:43.524Z,98174.69
2023-03-21T20:19:16.265Z,98179.75
2023-03-21T20:21:52.815Z,98180.34
2023-03-21T20:24:26.341Z,98171.59
2023-03-21T20:26:55.801Z,98168.38
2023-03-21T20:32:13.717Z,98170.72
2023-03-21T20:34:44.246Z,98178.88
2023-03-21T20:37:13.797Z,98172.53
2023-03-21T20:39:43.888Z,98178.16
2023-03-21T20:42:12.671Z,98174.13
2023-03-21T20:44:59.266Z,98178.19
2023-03-21T20:47:29.522Z,98179.53
2023-03-21T20:49:58.719Z,98176.75
2023-03-21T20:55:19.234Z,98168.00
2023-03-21T20:57:48.714Z,98161.66
2023-03-21T21:00:18.135Z,98166.09
2023-03-21T21:02:48.387Z,98168.88
2023-03-21T21:05:30.575Z,98163.75
2023-03-21T21:08:03.253Z,98161.72
2023-03-21T21:10:34.416Z,98163.66
2023-03-21T21:13:02.935Z,98160.34
2023-03-21T21:15:33.483Z,98152.88
2023-03-21T21:18:05.999Z,98158.53
2023-03-21T21:20:35.504Z,98160.66
2023-03-21T21:23:04.513Z,98155.69
2023-03-21T21:25:35.598Z,98152.09
2023-03-21T21:28:09.279Z,98162.47
2023-03-21T21:30:41.530Z,98159.41
2023-03-21T21:33:10.922Z,98165.88
2023-03-21T21:35:39.655Z,98167.66
2023-03-21T21:38:08.839Z,98161.91
2023-03-21T21:40:38.869Z,98164.88
2023-03-21T21:43:07.815Z,98168.47
2023-03-21T21:45:36.889Z,98161.41
2023-03-21T21:48:06.932Z,98157.72
2023-03-21T21:50:35.841Z,98158.69
2023-03-21T21:53:06.317Z,98161.22
2023-03-21T21:55:35.342Z,98160.53
2023-03-21T21:58:05.806Z,98152.59
2023-03-21T22:00:34.432Z,98154.28
2023-03-21T22:03:03.469Z,98153.13
2023-03-21T22:05:32.228Z,98149.91
2023-03-21T22:08:00.993Z,98159.69
2023-03-21T22:10:29.452Z,98157.78
2023-03-21T22:12:58.134Z,98145.53
2023-03-21T22:15:28.978Z,98146.56
2023-03-21T22:17:57.709Z,98150.63
2023-03-21T22:20:26.095Z,98151.00
2023-03-21T22:22:56.835Z,98150.38
2023-03-21T22:25:25.321Z,98160.19
2023-03-21T22:27:53.894Z,98154.31
2023-03-21T22:30:22.272Z,98151.88
2023-03-21T22:33:08.130Z,98154.47
2023-03-21T22:35:37.505Z,98154.38
2023-03-21T22:38:06.082Z,98147.66
2023-03-21T22:40:34.351Z,98148.66
2023-03-21T22:43:03.170Z,98148.06
2023-03-21T22:45:31.604Z,98149.75
2023-03-21T22:48:03.577Z,98142.09
2023-03-21T22:50:32.151Z,98137.91
2023-03-21T22:53:00.773Z,98134.09
2023-03-21T22:55:29.295Z,98133.66
2023-03-21T22:57:58.030Z,98128.59
2023-03-21T23:00:26.823Z,98123.69
2023-03-21T23:02:55.569Z,98119.94
2023-03-21T23:05:25.432Z,98119.66
2023-03-21T23:07:54.322Z,98108.53
2023-03-21T23:10:22.990Z,98108.31
2023-03-21T23:12:51.957Z,98113.19
2023-03-21T23:15:20.462Z,98101.25
2023-03-21T23:17:48.961Z,98091.44
2023-03-21T23:20:17.358Z,98100.88
2023-03-21T23:22:47.251Z,98098.38
2023-03-21T23:25:15.510Z,98110.31
2023-03-21T23:27:44.041Z,98105.00
2023-03-21T23:30:12.645Z,98106.50
2023-03-21T23:32:41.149Z,98109.03
2023-03-21T23:35:10.474Z,98108.31
2023-03-21T23:37:42.448Z,98106.38
2023-03-21T23:40:13.346Z,98107.75
2023-03-21T23:42:41.889Z,98100.13
2023-03-21T23:45:10.907Z,98106.25
2023-03-21T23:47:39.498Z,98100.69
2023-03-21T23:50:10.020Z,98095.22
2023-03-21T23:52:41.522Z,98099.19
2023-03-21T23:55:10.399Z,98104.63
2023-03-21T23:57:41.954Z,98099.00
